createdAt,value
2024-01-26T00:01:34.667Z,7.70
2024-01-26T00:05:16.809Z,7.10
2024-01-26T00:09:10.831Z,8.02
2024-01-26T00:12:52.884Z,8.30
2024-01-26T00:16:39.821Z,8.48
2024-01-26T00:20:26.387Z,9.32
2024-01-26T00:24:09.548Z,10.20
2024-01-26T00:27:51.623Z,8.73
2024-01-26T00:31:33.842Z,7.13
2024-01-26T00:35:16.830Z,8.55
2024-01-26T00:38:58.781Z,4.43
2024-01-26T00:42:40.764Z,5.20
2024-01-26T00:46:22.884Z,3.17
2024-01-26T00:50:05.656Z,4.13
2024-01-26T00:53:47.669Z,4.95
2024-01-26T00:57:29.963Z,3.75
2024-01-26T01:01:12.198Z,4.17
2024-01-26T01:04:54.374Z,4.20
2024-01-26T01:08:36.463Z,4.22
2024-01-26T01:12:18.704Z,4.85
2024-01-26T01:16:02.322Z,6.28
2024-01-26T01:19:44.298Z,4.65
2024-01-26T01:23:27.305Z,4.97
2024-01-26T01:27:09.668Z,4.93
2024-01-26T01:30:51.704Z,2.58
2024-01-26T01:34:33.847Z,3.42
2024-01-26T01:38:15.865Z,3.60
2024-01-26T01:41:57.869Z,3.33
2024-01-26T01:45:39.843Z,3.95
2024-01-26T01:49:23.944Z,5.72
2024-01-26T01:53:08.546Z,3.63
2024-01-26T01:56:51.243Z,4.05
2024-01-26T02:00:34.013Z,3.42
2024-01-26T02:04:16.150Z,3.40
2024-01-26T02:07:58.158Z,3.83
2024-01-26T02:11:40.265Z,4.97
2024-01-26T02:15:22.416Z,6.27
2024-01-26T02:19:04.628Z,6.35
2024-01-26T02:22:46.657Z,6.78
2024-01-26T02:26:28.656Z,9.23
2024-01-26T02:30:11.384Z,9.98
2024-01-26T02:33:56.251Z,11.25
2024-01-26T02:37:38.672Z,11.23
2024-01-26T02:41:20.670Z,10.00
2024-01-26T02:45:02.688Z,15.30
2024-01-26T02:48:45.166Z,15.52
2024-01-26T02:52:27.250Z,9.20
2024-01-26T02:56:09.491Z,13.80
2024-01-26T02:59:51.722Z,8.98
2024-01-26T03:03:34.270Z,10.52
2024-01-26T03:07:16.347Z,12.43
2024-01-26T03:10:58.429Z,11.57
2024-01-26T03:14:40.611Z,11.20
2024-01-26T03:18:22.798Z,9.23
2024-01-26T03:22:05.244Z,9.82
2024-01-26T03:25:47.241Z,4.55
2024-01-26T03:29:29.300Z,3.50
2024-01-26T03:33:11.439Z,6.38
2024-01-26T03:36:54.095Z,7.75
2024-01-26T03:40:36.199Z,6.53
2024-01-26T03:44:18.218Z,11.68
2024-01-26T03:48:00.313Z,10.73
2024-01-26T03:51:42.389Z,11.93
2024-01-26T03:55:24.460Z,14.20
2024-01-26T03:59:06.418Z,16.38
2024-01-26T04:02:48.561Z,20.80
2024-01-26T04:06:30.750Z,16.87
2024-01-26T04:10:12.812Z,18.15
2024-01-26T04:13:54.743Z,14.32
2024-01-26T04:17:36.846Z,22.90
2024-01-26T04:21:20.435Z,25.13
2024-01-26T04:25:02.551Z,23.90
2024-01-26T04:28:44.726Z,18.98
2024-01-26T04:32:26.921Z,15.43
2024-01-26T04:36:10.076Z,18.83
2024-01-26T04:39:52.291Z,18.75
2024-01-26T04:43:34.542Z,12.90
2024-01-26T04:47:17.553Z,14.50
2024-01-26T04:50:59.559Z,11.90
2024-01-26T04:54:41.507Z,14.67
2024-01-26T04:58:23.511Z,9.93
2024-01-26T05:02:05.942Z,11.77
2024-01-26T05:05:48.017Z,14.23
2024-01-26T05:09:29.992Z,18.03
2024-01-26T05:13:12.791Z,12.98
2024-01-26T05:16:54.770Z,16.27
2024-01-26T05:20:36.746Z,9.50
2024-01-26T05:24:18.899Z,12.65
2024-01-26T05:28:00.885Z,7.05
2024-01-26T05:31:42.981Z,10.73
2024-01-26T05:35:25.005Z,7.68
2024-01-26T05:39:07.075Z,11.10
2024-01-26T05:42:49.157Z,6.80
2024-01-26T05:46:31.742Z,6.57
2024-01-26T05:50:16.138Z,8.63
2024-01-26T05:53:58.344Z,10.18
2024-01-26T05:57:40.485Z,8.13
2024-01-26T06:01:22.536Z,8.82
2024-01-26T06:05:05.298Z,11.98
2024-01-26T06:08:47.754Z,7.83
2024-01-26T06:12:29.799Z,8.35
2024-01-26T06:16:15.342Z,7.82
2024-01-26T06:19:57.434Z,10.60
2024-01-26T06:23:42.897Z,9.73
2024-01-26T06:27:25.041Z,10.45
2024-01-26T06:31:07.053Z,10.07
2024-01-26T06:34:49.253Z,10.13
2024-01-26T06:38:31.386Z,10.32
2024-01-26T06:42:13.808Z,7.93
2024-01-26T06:45:55.819Z,6.27
2024-01-26T06:49:37.834Z,6.75
2024-01-26T06:53:20.610Z,8.30
2024-01-26T06:57:02.897Z,7.28
2024-01-26T07:00:45.381Z,11.17
2024-01-26T07:04:27.706Z,8.77
2024-01-26T07:08:10.698Z,8.20
2024-01-26T07:11:52.716Z,7.60
2024-01-26T07:15:37.166Z,13.48
2024-01-26T07:19:19.512Z,6.43
2024-01-26T07:23:02.065Z,7.23
2024-01-26T07:26:44.705Z,8.30
2024-01-26T07:30:26.729Z,8.10
2024-01-26T07:34:09.185Z,15.65
2024-01-26T07:37:53.738Z,8.00
2024-01-26T07:41:35.966Z,11.23
2024-01-26T07:45:18.072Z,10.38
2024-01-26T07:49:02.218Z,11.00
2024-01-26T07:52:44.485Z,8.15
2024-01-26T07:56:26.508Z,13.63
2024-01-26T08:00:10.246Z,9.97
2024-01-26T08:03:52.706Z,14.70
2024-01-26T08:07:34.826Z,15.38
2024-01-26T08:11:20.405Z,14.85
2024-01-26T08:15:03.080Z,8.73
2024-01-26T08:18:57.185Z,7.47
2024-01-26T08:22:42.030Z,5.25
2024-01-26T08:26:24.241Z,7.33
2024-01-26T08:30:11.240Z,10.00
2024-01-26T08:38:03.641Z,10.00
2024-01-26T08:45:57.608Z,15.73
2024-01-26T08:53:52.111Z,10.40
2024-01-26T08:58:20.627Z,11.88
2024-01-26T09:06:15.509Z,9.37
2024-01-26T09:10:19.447Z,8.77
2024-01-26T09:14:06.902Z,10.57
2024-01-26T09:21:59.252Z,34.63
2024-01-26T09:25:41.669Z,15.02
2024-01-26T09:29:27.896Z,11.35
2024-01-26T09:33:13.865Z,12.07
2024-01-26T09:36:57.670Z,11.15
2024-01-26T09:41:22.394Z,9.40
2024-01-26T09:45:16.449Z,11.90
2024-01-26T09:49:01.792Z,9.82
2024-01-26T09:56:55.108Z,8.73
2024-01-26T10:04:46.913Z,13.93
2024-01-26T10:12:39.858Z,11.67
2024-01-26T10:16:22.053Z,11.15
2024-01-26T10:20:08.861Z,8.00
2024-01-26T10:23:56.197Z,11.93
2024-01-26T10:27:38.879Z,13.05
2024-01-26T10:31:24.753Z,15.32
2024-01-26T10:35:11.995Z,10.10
2024-01-26T10:43:06.572Z,11.68
2024-01-26T10:47:35.830Z,10.93
2024-01-26T10:55:29.375Z,11.30
2024-01-26T11:03:22.237Z,19.80
2024-01-26T11:11:21.906Z,12.13
2024-01-26T11:15:20.158Z,10.87
2024-01-26T11:19:09.354Z,7.78
2024-01-26T11:23:36.266Z,8.55
2024-01-26T11:31:32.098Z,15.18
2024-01-26T11:35:59.444Z,12.75
2024-01-26T11:39:43.054Z,14.10
2024-01-26T11:43:32.300Z,8.20
2024-01-26T11:47:18.231Z,16.17
2024-01-26T11:55:09.726Z,12.73
2024-01-26T11:58:52.124Z,13.82
2024-01-26T12:02:41.469Z,10.48
2024-01-26T12:06:27.538Z,10.87
2024-01-26T12:14:20.834Z,14.25
2024-01-26T12:22:12.841Z,11.63
2024-01-26T12:25:55.479Z,13.50
2024-01-26T12:29:43.846Z,12.10
2024-01-26T12:33:28.622Z,11.50
2024-01-26T12:41:21.912Z,10.48
2024-01-26T12:45:04.482Z,10.37
2024-01-26T12:48:50.141Z,10.27
2024-01-26T12:52:38.887Z,12.15
2024-01-26T13:00:32.325Z,10.77
2024-01-26T13:08:24.165Z,12.52
2024-01-26T13:16:17.041Z,12.52
2024-01-26T13:20:05.452Z,14.55
2024-01-26T13:24:09.789Z,9.73
2024-01-26T13:27:52.348Z,8.35
2024-01-26T13:32:03.177Z,14.25
2024-01-26T13:39:58.127Z,16.50
2024-01-26T13:47:53.732Z,9.38
2024-01-26T13:52:18.224Z,14.27
2024-01-26T14:00:21.404Z,13.00
2024-01-26T14:04:25.156Z,13.10
2024-01-26T14:08:07.427Z,10.65
2024-01-26T14:19:40.178Z,12.60
2024-01-26T14:23:29.744Z,10.80
2024-01-26T14:27:15.869Z,14.43
2024-01-26T14:35:07.735Z,10.48
2024-01-26T14:38:49.944Z,13.88
2024-01-26T14:42:39.663Z,8.63
2024-01-26T14:46:26.427Z,12.13
2024-01-26T14:50:54.692Z,13.85
2024-01-26T14:54:36.863Z,10.30
2024-01-26T14:58:54.288Z,13.32
2024-01-26T15:02:54.473Z,15.80
2024-01-26T15:06:39.820Z,12.35
2024-01-26T15:10:22.302Z,15.37
2024-01-26T15:14:11.383Z,8.50
2024-01-26T15:18:01.063Z,11.48
2024-01-26T15:22:01.652Z,10.47
2024-01-26T15:34:52.128Z,14.87
2024-01-26T15:43:02.387Z,16.40
2024-01-26T15:46:50.827Z,10.10
2024-01-26T15:50:37.139Z,8.43
2024-01-26T16:03:07.585Z,12.23
2024-01-26T16:15:40.170Z,16.55
2024-01-26T16:24:26.487Z,13.10
2024-01-26T16:32:25.059Z,12.77
2024-01-26T16:36:48.078Z,14.07
2024-01-26T16:44:40.870Z,15.23
2024-01-26T16:52:35.339Z,14.23
2024-01-26T16:56:17.734Z,12.07
2024-01-26T16:59:59.824Z,17.58
2024-01-26T17:03:43.110Z,13.03
2024-01-26T17:07:25.159Z,14.52
2024-01-26T17:11:07.104Z,11.23
2024-01-26T17:14:49.674Z,14.57
2024-01-26T17:18:34.616Z,12.60
2024-01-26T17:22:16.664Z,16.83
2024-01-26T17:25:59.465Z,17.63
2024-01-26T17:29:41.416Z,12.97
2024-01-26T17:33:23.835Z,13.15
2024-01-26T17:37:06.926Z,14.95
2024-01-26T17:40:49.373Z,12.40
2024-01-26T17:44:31.317Z,17.98
2024-01-26T17:48:13.418Z,10.82
2024-01-26T17:51:55.529Z,11.87
2024-01-26T17:55:40.097Z,18.13
2024-01-26T17:59:24.105Z,14.18
2024-01-26T18:03:06.283Z,10.75
2024-01-26T18:06:48.462Z,15.23
2024-01-26T18:10:30.484Z,11.95
2024-01-26T18:14:13.841Z,14.30
2024-01-26T18:17:56.467Z,13.97
2024-01-26T18:21:38.462Z,21.00
2024-01-26T18:25:20.500Z,19.15
2024-01-26T18:29:02.800Z,9.00
2024-01-26T18:32:45.069Z,12.77
2024-01-26T18:36:29.254Z,12.27
2024-01-26T18:40:14.776Z,11.60
2024-01-26T18:43:58.131Z,11.93
2024-01-26T18:47:40.700Z,13.35
2024-01-26T18:51:24.140Z,15.10
2024-01-26T18:55:06.590Z,11.23
2024-01-26T18:58:48.933Z,13.85
2024-01-26T19:02:31.625Z,10.32
2024-01-26T19:06:13.882Z,14.50
2024-01-26T19:09:56.298Z,12.10
2024-01-26T19:13:39.698Z,12.77
2024-01-26T19:17:21.957Z,13.88
2024-01-26T19:25:15.910Z,11.27
2024-01-26T19:28:58.000Z,13.30
2024-01-26T19:32:43.395Z,15.80
2024-01-26T19:36:28.889Z,11.52
2024-01-26T19:40:11.816Z,10.27
2024-01-26T19:43:53.902Z,10.37
2024-01-26T19:47:36.495Z,10.68
2024-01-26T19:55:03.275Z,13.07
2024-01-26T19:58:45.416Z,13.60
2024-01-26T20:02:27.554Z,10.50
2024-01-26T20:06:11.709Z,17.67
2024-01-26T20:09:55.210Z,11.90
2024-01-26T20:13:38.243Z,12.73
2024-01-26T20:17:21.104Z,12.77
2024-01-26T20:21:08.122Z,13.30
2024-01-26T20:24:50.490Z,15.00
2024-01-26T20:28:32.600Z,19.10
2024-01-26T20:32:14.717Z,12.32
2024-01-26T20:35:56.988Z,11.57
2024-01-26T20:39:39.094Z,17.33
2024-01-26T20:43:21.313Z,16.17
2024-01-26T20:47:03.376Z,16.30
2024-01-26T20:50:45.626Z,14.75
2024-01-26T20:54:27.976Z,17.10
2024-01-26T20:58:10.010Z,18.33
2024-01-26T21:01:52.111Z,21.13
2024-01-26T21:05:41.875Z,18.23
2024-01-26T21:09:24.112Z,20.73
2024-01-26T21:13:06.363Z,18.20
2024-01-26T21:16:48.872Z,13.23
2024-01-26T21:20:30.979Z,12.45
2024-01-26T21:24:13.179Z,13.53
2024-01-26T21:27:55.288Z,14.32
2024-01-26T21:31:37.437Z,13.82
2024-01-26T21:35:19.631Z,13.20
2024-01-26T21:39:02.027Z,11.25
2024-01-26T21:42:44.235Z,12.43
2024-01-26T21:46:31.032Z,12.00
2024-01-26T21:50:13.712Z,10.93
2024-01-26T21:53:56.538Z,14.93
2024-01-26T21:57:38.814Z,10.63
2024-01-26T22:01:21.280Z,12.33
2024-01-26T22:05:03.368Z,9.40
2024-01-26T22:08:45.411Z,9.48
2024-01-26T22:12:27.491Z,16.93
2024-01-26T22:16:10.574Z,12.35
2024-01-26T22:19:52.632Z,9.27
2024-01-26T22:23:34.787Z,13.98
2024-01-26T22:27:17.980Z,12.83
2024-01-26T22:31:00.071Z,13.52
2024-01-26T22:34:42.053Z,15.38
2024-01-26T22:38:24.047Z,12.83
2024-01-26T22:42:07.049Z,10.82
2024-01-26T22:45:49.094Z,11.70
2024-01-26T22:49:31.182Z,15.70
2024-01-26T22:53:13.410Z,17.35
2024-01-26T22:56:55.664Z,14.40
2024-01-26T23:00:39.364Z,13.43
2024-01-26T23:04:21.416Z,11.43
2024-01-26T23:08:03.811Z,11.98
2024-01-26T23:11:45.941Z,10.63
2024-01-26T23:15:28.105Z,9.53
2024-01-26T23:19:10.227Z,13.45
2024-01-26T23:22:52.459Z,11.25
2024-01-26T23:26:34.440Z,13.47
2024-01-26T23:30:16.530Z,9.05
2024-01-26T23:33:58.670Z,10.73
2024-01-26T23:37:40.789Z,8.23
2024-01-26T23:41:22.797Z,9.20
2024-01-26T23:45:05.289Z,13.75
2024-01-26T23:48:47.520Z,13.00
2024-01-26T23:52:30.023Z,15.20
2024-01-26T23:56:12.077Z,12.23
2024-01-26T23:59:54.164Z,12.38
